Time;durP1;ratioP1;P1;durP2;ratioP2;P2;SDS_P1;SDS_P2;PMS_P1;PMS_P2;Temp;Humidity;BMP_temperature;BMP_pressure;BME280_temperature;BME280_humidity;BME280_pressure;Samples;Min_cycle;Max_cycle;Signal;HPM_P1;HPM_P2
2022/07/11 04:27:15;;;;;;;6.45;2.83;;;;;;;16.90;53.17;101329.22;5085395;27;20443;-93
2022/07/11 04:29:41;;;;;;;5.45;2.40;;;;;;;17.07;50.75;101333.38;5049588;28;20498;-92
2022/07/11 04:32:07;;;;;;;15.68;2.55;;;;;;;17.26;51.06;101330.41;5034102;28;20646;-91
2022/07/11 04:34:32;;;;;;;5.35;2.13;;;;;;;17.69;49.86;101344.06;5029639;28;20033;-89
2022/07/11 04:36:58;;;;;;;6.32;2.50;;;;;;;18.43;50.22;101345.97;5049876;28;20079;-88
2022/07/11 04:39:24;;;;;;;11.43;2.33;;;;;;;18.41;47.71;101350.47;5083534;28;20039;-92
2022/07/11 04:41:50;;;;;;;7.13;2.30;;;;;;;18.40;46.45;101355.81;5050602;28;20040;-91
2022/07/11 04:44:15;;;;;;;4.68;2.17;;;;;;;18.21;46.26;101330.91;5050287;28;20029;-92
2022/07/11 04:46:40;;;;;;;3.63;2.15;;;;;;;18.38;46.24;101352.44;5069379;28;20036;-90
2022/07/11 04:49:06;;;;;;;5.38;2.13;;;;;;;18.33;46.39;101363.28;5067832;28;20036;-91
2022/07/11 04:51:31;;;;;;;3.75;2.20;;;;;;;18.09;46.79;101339.59;5067126;28;20036;-85
2022/07/11 04:53:57;;;;;;;4.10;1.88;;;;;;;18.06;47.03;101338.03;5049245;28;20031;-86
2022/07/11 04:56:22;;;;;;;4.30;2.10;;;;;;;18.09;46.84;101350.06;5048861;28;20486;-89
2022/07/11 04:58:48;;;;;;;4.68;1.90;;;;;;;18.16;46.67;101356.56;5033329;28;20048;-89
2022/07/11 05:01:13;;;;;;;6.82;1.92;;;;;;;18.02;46.73;101336.59;5066605;28;20533;-84
2022/07/11 05:03:39;;;;;;;4.10;2.10;;;;;;;18.16;47.74;101358.34;5031810;28;20482;-85
2022/07/11 05:06:05;;;;;;;5.05;2.20;;;;;;;18.13;47.26;101354.19;5082209;28;20040;-93
2022/07/11 05:08:30;;;;;;;4.35;2.15;;;;;;;18.08;46.84;101344.94;5033257;28;20024;-85
2022/07/11 05:10:56;;;;;;;3.55;1.83;;;;;;;18.15;46.04;101356.69;5065159;28;20086;-89
2022/07/11 05:13:22;;;;;;;3.28;2.03;;;;;;;18.12;45.80;101362.13;5048799;28;20402;-85
2022/07/11 05:15:47;;;;;;;5.05;2.22;;;;;;;18.14;46.21;101355.00;5064446;28;20060;-87
2022/07/11 05:18:13;;;;;;;6.57;2.10;;;;;;;18.33;45.26;101366.72;5064106;28;20482;-93
2022/07/11 05:20:38;;;;;;;8.63;3.60;;;;;;;18.35;45.31;101372.69;5034714;28;20032;-88
2022/07/11 05:23:04;;;;;;;17.45;9.32;;;;;;;18.44;43.91;101373.81;5049482;28;20110;-91
2022/07/11 05:25:29;;;;;;;7.43;3.80;;;;;;;18.56;44.36;101364.25;5030922;28;20182;-85
2022/07/11 05:27:55;;;;;;;6.18;1.83;;;;;;;18.55;43.42;101360.81;5031524;28;20477;-90
2022/07/11 05:30:20;;;;;;;4.65;2.08;;;;;;;18.54;43.96;101356.50;5065006;28;20029;-89
2022/07/11 05:32:46;;;;;;;4.43;1.98;;;;;;;18.67;43.59;101367.00;5064560;28;20124;-85
2022/07/11 05:35:12;;;;;;;10.20;5.70;;;;;;;18.71;43.01;101365.84;5025834;28;20067;-88
2022/07/11 05:37:37;;;;;;;6.05;2.45;;;;;;;18.84;43.31;101360.53;5037506;28;20026;-86
2022/07/11 05:40:03;;;;;;;26.80;14.15;;;;;;;18.94;42.79;101364.19;5035514;28;20067;-88
2022/07/11 05:42:29;;;;;;;5.65;2.92;;;;;;;18.97;43.86;101347.38;5051226;28;20025;-90
2022/07/11 05:44:54;;;;;;;5.35;1.88;;;;;;;19.14;42.64;101353.06;5019107;28;20037;-87
2022/07/11 05:47:20;;;;;;;3.28;1.92;;;;;;;19.12;42.56;101354.16;5055057;28;20485;-94
2022/07/11 05:49:45;;;;;;;4.38;1.60;;;;;;;19.10;41.80;101351.63;5020990;28;20090;-94
2022/07/11 05:52:11;;;;;;;6.15;1.88;;;;;;;19.13;41.81;101340.91;5037448;28;20461;-92
2022/07/11 05:54:36;;;;;;;3.00;1.58;;;;;;;19.13;41.49;101350.56;5034677;28;20036;-90
2022/07/11 05:57:02;;;;;;;4.35;1.83;;;;;;;19.15;42.00;101346.88;5034734;28;20109;-88
2022/07/11 05:59:28;;;;;;;7.45;2.22;;;;;;;19.23;42.12;101350.72;5051536;28;20102;-87
2022/07/11 06:01:54;;;;;;;3.15;1.60;;;;;;;19.09;41.33;101342.09;5034705;28;20115;-85
2022/07/11 06:04:19;;;;;;;3.95;1.80;;;;;;;19.15;40.45;101359.16;5051158;28;20043;-92
2022/07/11 06:06:45;;;;;;;8.45;2.92;;;;;;;19.22;40.84;101364.78;5035442;28;20035;-85
2022/07/11 06:09:10;;;;;;;3.58;2.15;;;;;;;19.40;41.41;101369.53;5050650;28;20029;-85
2022/07/11 06:11:36;;;;;;;4.63;2.38;;;;;;;19.50;41.58;101356.56;5034186;28;20033;-89
2022/07/11 06:14:02;;;;;;;4.63;1.80;;;;;;;19.51;41.15;101346.91;5034735;28;20029;-89
2022/07/11 06:16:27;;;;;;;4.88;1.70;;;;;;;19.55;41.14;101346.53;5034351;28;20343;-86
2022/07/11 06:18:53;;;;;;;3.47;1.88;;;;;;;19.66;41.12;101362.34;5034094;28;20075;-86
2022/07/11 06:21:21;;;;;;;3.50;1.88;;;;;;;19.66;41.13;101349.22;5052135;28;20025;-86
2022/07/11 06:23:47;;;;;;;4.07;2.10;;;;;;;19.69;39.75;101366.53;5032067;28;20037;-96
2022/07/11 06:26:14;;;;;;;3.90;1.67;;;;;;;19.71;39.92;101357.59;5020218;28;20505;-93
2022/07/11 06:28:40;;;;;;;4.20;2.13;;;;;;;19.88;40.68;101369.44;5031224;28;20095;-95
2022/07/11 06:31:05;;;;;;;3.58;1.60;;;;;;;19.74;40.29;101349.47;5060871;28;20034;-89
2022/07/11 06:33:31;;;;;;;6.63;2.20;;;;;;;19.87;40.71;101361.69;5040585;28;20037;-96
2022/07/11 06:35:56;;;;;;;3.78;2.33;;;;;;;19.94;40.60;101368.13;5032138;28;20033;-94
2022/07/11 06:38:22;;;;;;;6.38;1.85;;;;;;;20.03;40.30;101364.78;5048367;28;20380;-93
2022/07/11 06:40:47;;;;;;;4.82;1.98;;;;;;;20.05;39.96;101355.84;5038093;28;20040;-94
2022/07/11 06:43:13;;;;;;;5.10;2.78;;;;;;;20.07;40.00;101362.78;5018490;28;20505;-90
2022/07/11 06:45:38;;;;;;;8.40;2.08;;;;;;;20.16;39.43;101346.31;5051139;28;20036;-91
2022/07/11 06:48:05;;;;;;;3.20;2.35;;;;;;;20.25;39.20;101350.81;5018135;28;20086;-87
2022/07/11 06:50:30;;;;;;;10.23;2.50;;;;;;;20.18;38.31;101360.16;5038144;28;20515;-91
2022/07/11 06:52:56;;;;;;;4.32;1.92;;;;;;;20.17;38.64;101364.59;5035487;28;20031;-86
2022/07/11 06:55:22;;;;;;;2.88;1.77;;;;;;;20.23;38.61;101361.47;5031352;28;20037;-89
2022/07/11 06:57:49;;;;;;;12.70;5.60;;;;;;;20.37;39.25;101349.91;5035991;28;20032;-89
2022/07/11 07:00:15;;;;;;;7.30;3.00;;;;;;;20.58;38.64;101363.16;5034683;28;20033;-85
2022/07/11 07:02:41;;;;;;;6.93;1.85;;;;;;;20.62;39.49;101360.16;5017808;28;20025;-87
2022/07/11 07:05:07;;;;;;;4.97;2.00;;;;;;;20.73;38.56;101356.66;5031899;28;20560;-91
2022/07/11 07:07:32;;;;;;;5.65;2.00;;;;;;;20.72;38.07;101354.16;5016430;28;20028;-90
2022/07/11 07:09:58;;;;;;;5.95;1.95;;;;;;;20.57;38.20;101350.97;5034037;28;20037;-88
2022/07/11 07:12:23;;;;;;;5.70;2.22;;;;;;;20.63;38.80;101351.31;5050752;28;20052;-89
2022/07/11 07:14:49;;;;;;;4.15;1.60;;;;;;;20.67;38.32;101372.94;5019735;28;20033;-94
2022/07/11 07:17:15;;;;;;;3.88;1.80;;;;;;;20.72;38.31;101368.13;5020113;28;20079;-87
2022/07/11 07:19:40;;;;;;;9.38;4.25;;;;;;;20.81;38.11;101369.19;5039893;28;20093;-93
2022/07/11 07:22:06;;;;;;;6.30;2.28;;;;;;;20.82;38.11;101361.19;5017216;28;20029;-90
2022/07/11 07:24:32;;;;;;;6.30;1.60;;;;;;;20.93;37.98;101349.78;5032152;28;20068;-92
2022/07/11 07:26:58;;;;;;;7.40;2.30;;;;;;;20.90;38.15;101348.25;5034096;28;20055;-93
2022/07/11 07:29:25;;;;;;;3.20;1.55;;;;;;;20.91;37.83;101352.56;5033390;28;20482;-94
2022/07/11 07:31:52;;;;;;;5.15;2.25;;;;;;;20.88;37.46;101350.19;5033607;28;20116;-92
2022/07/11 07:34:19;;;;;;;4.65;1.85;;;;;;;20.95;37.96;101349.69;5033036;28;20029;-89
2022/07/11 07:36:44;;;;;;;7.88;2.83;;;;;;;20.86;37.73;101325.81;5049454;28;20072;-88
2022/07/11 07:39:10;;;;;;;7.10;3.00;;;;;;;21.12;38.19;101346.50;5050459;28;20426;-93
2022/07/11 07:41:36;;;;;;;5.15;2.10;;;;;;;21.14;38.01;101334.09;5018585;28;20475;-87
2022/07/11 07:44:02;;;;;;;3.80;2.38;;;;;;;21.45;37.28;101338.50;5042877;28;20032;-91
2022/07/11 07:46:27;;;;;;;5.60;2.38;;;;;;;21.64;37.53;101337.81;5045217;28;20025;-90
2022/07/11 07:48:53;;;;;;;6.38;2.67;;;;;;;21.69;37.55;101355.84;5029992;28;20040;-89
2022/07/11 07:51:18;;;;;;;7.40;2.33;;;;;;;21.78;37.53;101336.63;5030228;28;20107;-87
2022/07/11 07:53:44;;;;;;;3.95;2.00;;;;;;;21.55;37.51;101340.38;5047165;28;20414;-88
2022/07/11 07:56:09;;;;;;;4.80;2.67;;;;;;;21.70;37.92;101339.06;5049439;28;21389;-92
2022/07/11 07:58:35;;;;;;;6.47;2.63;;;;;;;21.87;37.48;101342.91;5018237;28;20033;-91
2022/07/11 08:03:44;;;;;;;6.53;2.30;;;;;;;22.21;37.00;101346.13;5051314;28;20044;-91
2022/07/11 08:06:10;;;;;;;5.70;1.90;;;;;;;21.90;37.34;101354.00;5049835;28;20028;-91
2022/07/11 08:08:36;;;;;;;3.33;1.95;;;;;;;21.92;37.31;101344.16;5030367;28;20033;-91
2022/07/11 08:11:02;;;;;;;5.82;2.25;;;;;;;22.02;37.84;101321.38;5017003;28;20495;-88
2022/07/11 08:13:28;;;;;;;4.97;2.85;;;;;;;22.16;37.23;101341.28;5038520;28;20067;-92
2022/07/11 08:15:54;;;;;;;5.47;2.78;;;;;;;22.18;37.64;101328.78;5052074;28;20119;-94
2022/07/11 08:18:19;;;;;;;6.82;3.15;;;;;;;22.17;37.23;101331.56;5048845;28;20056;-95
2022/07/11 08:20:45;;;;;;;4.85;2.70;;;;;;;22.28;38.32;101342.84;5046139;28;20029;-86
2022/07/11 08:23:12;;;;;;;5.07;2.95;;;;;;;22.41;37.66;101332.06;5046374;28;20100;-86
2022/07/11 08:25:38;;;;;;;4.43;2.72;;;;;;;22.57;37.75;101342.94;5049606;28;20440;-83
2022/07/11 08:28:04;;;;;;;7.70;3.20;;;;;;;22.72;37.93;101338.13;5045330;28;20033;-85
2022/07/11 08:30:29;;;;;;;7.35;3.55;;;;;;;22.76;38.09;101341.31;5028450;28;20057;-84
2022/07/11 08:32:55;;;;;;;5.97;3.10;;;;;;;22.69;37.67;101324.34;5048409;28;20025;-85
2022/07/11 08:35:20;;;;;;;6.90;3.47;;;;;;;22.60;37.70;101341.81;5048635;28;20060;-91
2022/07/11 08:37:46;;;;;;;6.88;4.03;;;;;;;22.71;38.45;101352.25;5012532;28;21055;-87
2022/07/11 08:40:11;;;;;;;9.65;3.83;;;;;;;22.59;38.56;101343.63;5038079;28;20437;-90
2022/07/11 08:42:41;;;;;;;5.55;3.53;;;;;;;22.66;38.82;101336.00;5029508;28;20079;-86
2022/07/11 08:45:07;;;;;;;7.15;3.70;;;;;;;22.85;38.47;101354.53;5043962;28;20116;-89
2022/07/11 08:47:33;;;;;;;8.35;4.13;;;;;;;22.60;38.29;101331.28;5022203;28;20036;-86
2022/07/11 08:50:00;;;;;;;10.35;4.78;;;;;;;22.74;38.56;101338.81;5020015;28;20022;-91
2022/07/11 08:52:26;;;;;;;8.25;4.53;;;;;;;22.57;38.65;101332.38;5032133;28;20037;-87
2022/07/11 08:54:51;;;;;;;9.05;3.67;;;;;;;22.77;38.83;101338.53;5049735;28;20402;-86
2022/07/11 08:57:17;;;;;;;6.55;3.47;;;;;;;;;;5045529;28;20043;-88
2022/07/11 08:59:43;;;;;;;5.13;3.42;;;;;;;22.84;38.75;101338.84;5034923;28;20055;-94
2022/07/11 09:02:09;;;;;;;7.90;3.63;;;;;;;22.68;38.94;101343.78;5032753;28;20033;-93
2022/07/11 09:04:34;;;;;;;6.72;3.72;;;;;;;22.71;38.62;101346.97;5015832;28;20029;-88
2022/07/11 09:07:01;;;;;;;7.80;4.20;;;;;;;22.77;38.98;101342.97;5048042;28;20501;-86
2022/07/11 09:09:28;;;;;;;6.38;3.60;;;;;;;23.01;39.28;101325.00;5014222;28;20082;-86
2022/07/11 09:11:54;;;;;;;7.13;4.00;;;;;;;23.03;39.83;101340.69;5029589;28;20040;-86
2022/07/11 09:14:27;;;;;;;11.23;5.43;;;;;;;23.31;38.91;101342.47;5033692;28;20036;-87
2022/07/11 09:17:03;;;;;;;9.75;4.10;;;;;;;23.13;38.64;101344.97;5017479;28;20094;-88
2022/07/11 09:19:41;;;;;;;10.70;3.78;;;;;;;23.11;38.57;101362.75;5049771;28;20106;-89
2022/07/11 09:28:03;;;;;;;13.65;9.82;;;;;;;23.45;37.40;101354.41;5040227;28;20386;-91
2022/07/11 09:30:35;;;;;;;8.27;3.65;;;;;;;23.44;36.99;101342.19;5052017;28;20027;-90
2022/07/11 09:33:00;;;;;;;9.00;3.63;;;;;;;23.44;35.54;101358.03;5021640;28;20040;-96
2022/07/11 09:35:28;;;;;;;8.95;3.90;;;;;;;23.44;35.56;101352.75;5057271;28;20033;-93
2022/07/11 09:37:53;;;;;;;6.97;3.65;;;;;;;23.43;35.94;101338.72;5019097;28;20021;-91
2022/07/11 09:40:21;;;;;;;7.90;3.92;;;;;;;23.54;36.18;101340.34;5036434;28;20048;-92
2022/07/11 09:42:50;;;;;;;5.38;3.92;;;;;;;23.58;36.12;101352.28;5036106;28;20064;-90
2022/07/11 09:45:16;;;;;;;5.07;3.10;;;;;;;23.51;35.52;101332.72;5031730;28;20044;-91
2022/07/11 09:47:49;;;;;;;6.95;3.72;;;;;;;23.71;36.22;101358.16;5019474;28;20068;-93
2022/07/11 09:50:19;;;;;;;6.85;4.65;;;;;;;23.78;35.88;101344.34;5016860;28;20549;-88
2022/07/11 09:53:08;;;;;;;5.95;4.15;;;;;;;24.11;34.67;101345.66;4999466;28;20095;-94
2022/07/11 09:55:39;;;;;;;8.50;5.18;;;;;;;24.24;35.21;101346.97;5048787;28;20086;-93
2022/07/11 09:58:05;;;;;;;8.82;4.80;;;;;;;24.21;34.55;101355.22;5032167;28;20033;-89
2022/07/11 10:00:31;;;;;;;6.78;5.10;;;;;;;24.18;34.69;101352.84;4998166;28;20040;-88
2022/07/11 10:02:58;;;;;;;7.28;4.70;;;;;;;24.31;34.65;101348.09;5051885;28;20021;-87
2022/07/11 10:05:23;;;;;;;17.95;5.80;;;;;;;24.14;34.78;101334.78;5017867;28;20478;-90
2022/07/11 10:07:49;;;;;;;6.53;4.20;;;;;;;24.29;34.07;101349.19;5034699;28;20036;-90
2022/07/11 10:10:14;;;;;;;8.73;5.03;;;;;;;24.10;34.78;101349.28;5018317;28;20025;-91
2022/07/11 10:12:40;;;;;;;11.25;5.10;;;;;;;24.18;34.39;101352.84;5017252;28;20552;-90
2022/07/11 10:15:08;;;;;;;12.70;4.78;;;;;;;24.43;34.16;101361.13;5018394;28;20021;-93
2022/07/11 10:17:43;;;;;;;5.78;3.80;;;;;;;24.54;33.19;101368.84;5018577;28;20115;-89
2022/07/11 10:20:30;;;;;;;6.43;3.90;;;;;;;24.47;33.58;101368.59;5039292;28;20033;-89
2022/07/11 10:23:14;;;;;;;8.02;3.97;;;;;;;24.19;33.97;101369.56;5052159;28;20086;-90
2022/07/11 10:25:53;;;;;;;6.82;3.83;;;;;;;23.98;35.36;101367.09;5051380;28;20049;-87
2022/07/11 10:28:32;;;;;;;9.68;6.47;;;;;;;24.15;34.32;101369.00;5034683;28;20039;-85
2022/07/11 10:31:01;;;;;;;6.05;3.47;;;;;;;24.31;34.19;101371.06;5033902;28;20035;-89
2022/07/11 10:33:27;;;;;;;8.88;4.57;;;;;;;24.26;33.39;101367.97;5022375;28;20060;-93
2022/07/11 10:35:53;;;;;;;5.55;4.10;;;;;;;24.23;33.43;101360.34;5043766;28;20009;-91
2022/07/11 10:38:19;;;;;;;7.38;3.75;;;;;;;24.35;33.97;101363.66;5041524;28;20037;-90
2022/07/11 10:40:52;;;;;;;10.55;3.30;;;;;;;24.49;33.15;101371.94;5027179;28;20032;-86
2022/07/11 10:43:30;;;;;;;6.82;3.20;;;;;;;24.33;33.56;101360.34;5027991;28;20422;-87
2022/07/11 10:46:04;;;;;;;9.52;3.75;;;;;;;24.34;33.53;101367.28;5038498;28;20146;-92
2022/07/11 10:48:32;;;;;;;7.57;3.45;;;;;;;24.35;33.89;101356.56;5036909;28;20513;-91
2022/07/11 10:51:01;;;;;;;6.35;3.35;;;;;;;24.52;33.71;101361.06;5020233;28;20068;-90
2022/07/11 10:53:30;;;;;;;6.10;3.70;;;;;;;24.61;33.05;101346.13;5042313;28;20029;-95
2022/07/11 10:56:04;;;;;;;9.73;3.47;;;;;;;24.50;33.02;101362.19;5014835;28;20017;-92
2022/07/11 10:58:29;;;;;;;3.55;2.95;;;;;;;24.55;32.48;101352.00;5028174;28;20116;-92
2022/07/11 11:01:09;;;;;;;6.43;4.20;;;;;;;24.78;33.12;101355.06;5020848;28;20028;-88
2022/07/11 11:03:35;;;;;;;4.82;3.35;;;;;;;25.01;32.82;101364.22;5030410;28;20032;-89
2022/07/11 11:06:01;;;;;;;4.82;3.17;;;;;;;24.76;31.55;101354.38;5025686;28;20032;-87
2022/07/11 11:08:35;;;;;;;3.72;2.67;;;;;;;24.97;31.96;101364.66;5012035;28;20032;-91
2022/07/11 11:11:26;;;;;;;5.95;3.10;;;;;;;25.17;32.24;101363.56;5054428;28;20032;-92
2022/07/11 11:14:26;;;;;;;5.07;2.92;;;;;;;25.33;30.75;101360.22;5025304;28;20502;-88
2022/07/11 11:16:51;;;;;;;7.07;2.67;;;;;;;24.78;31.97;101344.50;5038244;28;20033;-89
2022/07/11 11:19:48;;;;;;;6.15;2.80;;;;;;;25.13;32.57;101370.16;5040437;28;20090;-93
2022/07/11 11:22:14;;;;;;;8.00;3.25;;;;;;;25.20;31.43;101365.91;5047473;28;20033;-94
2022/07/11 11:24:44;;;;;;;6.97;3.63;;;;;;;25.15;31.49;101347.00;5022110;28;20467;-95
2022/07/11 11:27:21;;;;;;;6.50;3.10;;;;;;;25.30;30.40;101339.34;5040283;28;20079;-91
2022/07/11 11:29:47;;;;;;;9.43;4.10;;;;;;;25.29;31.03;101340.34;5048528;28;20060;-94
2022/07/11 11:32:13;;;;;;;5.90;2.75;;;;;;;25.50;30.43;101367.31;5037569;28;20027;-86
2022/07/11 11:34:40;;;;;;;4.20;3.10;;;;;;;25.17;31.61;101358.25;5023170;28;20025;-84
2022/07/11 11:37:06;;;;;;;5.88;3.00;;;;;;;25.25;31.17;101362.81;5010371;28;20457;-92
2022/07/11 11:39:34;;;;;;;5.65;3.20;;;;;;;25.40;30.76;101361.28;5027449;28;20045;-89
2022/07/11 11:42:07;;;;;;;7.25;2.90;;;;;;;25.36;30.78;101362.56;5042358;28;20052;-84
2022/07/11 11:44:33;;;;;;;4.70;2.63;;;;;;;25.51;30.85;101362.84;5021143;28;20060;-89
2022/07/11 11:46:59;;;;;;;7.05;3.00;;;;;;;25.64;32.18;101342.06;5034556;28;20129;-89
2022/07/11 11:49:24;;;;;;;7.07;3.60;;;;;;;25.86;31.18;101362.81;5042049;28;20033;-89
2022/07/11 11:51:50;;;;;;;4.95;3.00;;;;;;;25.62;31.85;101347.53;5020413;28;20033;-92
2022/07/11 11:54:23;;;;;;;4.50;3.10;;;;;;;25.89;30.71;101346.56;5046943;23;20057;-90
2022/07/11 11:56:48;;;;;;;5.13;3.38;;;;;;;25.79;30.31;101348.50;5009717;28;20525;-88
2022/07/11 11:59:15;;;;;;;8.45;3.40;;;;;;;25.48;30.37;101344.63;5009465;28;20064;-88
2022/07/11 12:01:42;;;;;;;5.88;2.75;;;;;;;25.56;29.72;101360.56;4997000;28;20628;-92
2022/07/11 12:04:10;;;;;;;6.97;3.88;;;;;;;25.05;30.20;101330.38;5039178;28;20095;-95
2022/07/11 12:06:37;;;;;;;4.78;3.33;;;;;;;25.29;30.42;101350.94;5045622;28;20025;-91
2022/07/11 12:09:03;;;;;;;3.85;3.05;;;;;;;25.30;28.94;101358.72;5015882;28;20040;-89
2022/07/11 12:11:29;;;;;;;3.75;3.00;;;;;;;25.20;28.87;101355.34;5046101;28;20025;-91
2022/07/11 12:13:56;;;;;;;5.60;3.25;;;;;;;25.31;28.84;101352.44;5051430;28;20037;-90
2022/07/11 12:16:41;;;;;;;4.60;3.30;;;;;;;25.19;29.78;101348.38;5015532;28;20033;-87
2022/07/11 12:19:11;;;;;;;5.43;3.45;;;;;;;25.11;29.96;101361.53;4997479;28;20044;-86
2022/07/11 12:21:37;;;;;;;8.52;3.38;;;;;;;25.23;29.74;101347.06;5023228;28;20041;-92
2022/07/11 12:24:06;;;;;;;4.57;2.72;;;;;;;25.23;28.89;101310.00;5007549;28;20079;-92
2022/07/11 12:26:33;;;;;;;6.75;4.03;;;;;;;25.18;29.87;101354.66;5018507;28;20530;-93
2022/07/11 12:29:19;;;;;;;9.52;4.10;;;;;;;25.42;30.39;101349.53;4996588;28;20091;-92
2022/07/11 12:31:57;;;;;;;4.07;2.90;;;;;;;25.60;30.52;101360.13;5025028;28;20336;-87
2022/07/11 12:34:40;;;;;;;4.60;3.10;;;;;;;25.22;30.08;101340.13;5022876;28;20036;-89
2022/07/11 12:37:08;;;;;;;3.83;2.63;;;;;;;25.25;29.59;101352.22;4994714;28;20131;-91
2022/07/11 12:39:38;;;;;;;3.75;2.60;;;;;;;25.40;29.59;101346.22;5030344;28;20060;-94
2022/07/11 12:42:23;;;;;;;5.20;2.70;;;;;;;25.48;29.30;101349.94;4987112;28;20068;-89
2022/07/11 12:44:59;;;;;;;4.43;2.78;;;;;;;25.79;29.11;101351.16;5018792;28;20035;-92
2022/07/11 12:47:28;;;;;;;7.90;3.25;;;;;;;25.62;29.22;101344.06;5052831;28;20040;-88
2022/07/11 12:49:54;;;;;;;4.75;2.80;;;;;;;25.35;29.04;101348.50;5010114;28;20033;-87
2022/07/11 12:52:20;;;;;;;3.72;2.80;;;;;;;25.25;29.25;101344.28;5033301;28;20114;-86
2022/07/11 12:54:45;;;;;;;6.15;2.95;;;;;;;25.14;29.27;101345.34;5031417;28;20046;-91
2022/07/11 12:57:15;;;;;;;3.80;2.90;;;;;;;25.23;30.01;101336.47;5031355;28;20041;-88
2022/07/11 12:59:41;;;;;;;6.93;3.15;;;;;;;24.75;30.31;101340.31;5031249;28;20152;-86
2022/07/11 13:02:09;;;;;;;5.78;2.95;;;;;;;25.20;30.40;101338.63;5024495;28;20120;-91
2022/07/11 13:04:42;;;;;;;6.30;2.92;;;;;;;25.55;29.86;101343.00;4989725;28;20760;-88
2022/07/11 13:10:15;;;;;;;3.55;2.85;;;;;;;25.32;29.40;101337.38;5025102;28;20044;-86
2022/07/11 13:12:41;;;;;;;4.55;2.83;;;;;;;25.54;29.57;101336.88;5049665;28;20120;-87
2022/07/11 13:15:11;;;;;;;7.25;3.00;;;;;;;25.63;29.00;101345.72;5017447;28;20295;-85
2022/07/11 13:17:51;;;;;;;3.55;2.40;;;;;;;25.68;29.50;101346.09;5053277;28;20111;-87
2022/07/11 13:20:17;;;;;;;6.38;4.00;;;;;;;25.69;29.32;101342.47;5054153;28;20026;-89
2022/07/11 13:22:44;;;;;;;6.00;2.88;;;;;;;25.32;28.44;101348.81;5008490;28;20030;-85
2022/07/11 13:25:11;;;;;;;4.72;3.42;;;;;;;25.03;30.08;101356.16;5026605;28;20053;-87
2022/07/11 13:27:37;;;;;;;5.85;3.72;;;;;;;25.00;30.84;101343.22;5007423;28;20388;-88
2022/07/11 13:30:09;;;;;;;4.28;3.70;;;;;;;25.16;30.23;101362.72;5020237;28;20030;-87
2022/07/11 13:32:35;;;;;;;4.05;3.25;;;;;;;25.07;29.17;101360.16;5004023;28;20037;-87
2022/07/11 13:35:01;;;;;;;6.18;3.42;;;;;;;24.72;28.94;101350.38;5004975;28;20560;-90
2022/07/11 13:37:26;;;;;;;5.72;3.00;;;;;;;24.64;28.52;101364.34;5024405;28;20041;-90
2022/07/11 13:39:52;;;;;;;3.65;2.85;;;;;;;24.56;28.41;101357.13;5004572;28;20522;-91
2022/07/11 13:42:17;;;;;;;3.58;2.50;;;;;;;24.67;29.36;101357.91;5005230;28;20026;-93
2022/07/11 13:44:43;;;;;;;4.32;2.63;;;;;;;24.73;28.47;101360.78;5020280;28;20589;-85
2022/07/11 13:47:08;;;;;;;5.60;2.75;;;;;;;24.63;29.39;101352.09;5045354;28;20758;-85
2022/07/11 13:49:34;;;;;;;11.43;7.13;;;;;;;24.64;30.25;101366.97;5023417;28;20132;-87
2022/07/11 13:51:59;;;;;;;5.63;3.03;;;;;;;24.64;29.74;101364.34;5034572;28;20080;-92
2022/07/11 13:54:25;;;;;;;4.22;2.90;;;;;;;24.53;30.61;101361.91;5024827;28;20727;-91
2022/07/11 13:56:50;;;;;;;3.42;2.50;;;;;;;24.59;29.78;101354.22;5022412;28;20818;-90
2022/07/11 13:59:16;;;;;;;4.20;2.70;;;;;;;24.73;29.42;101358.16;5032012;28;20040;-86
2022/07/11 14:01:41;;;;;;;4.13;2.45;;;;;;;24.77;30.41;101356.84;5029834;28;20044;-93
2022/07/11 14:04:07;;;;;;;6.15;2.63;;;;;;;24.70;30.96;101363.75;4989494;28;20056;-88
2022/07/11 14:06:33;;;;;;;7.60;3.63;;;;;;;24.53;31.33;101364.53;5021466;28;20061;-86
2022/07/11 14:08:59;;;;;;;5.25;2.70;;;;;;;24.46;31.89;101364.28;5023971;28;20029;-86
2022/07/11 14:11:24;;;;;;;4.15;2.80;;;;;;;24.40;31.62;101361.41;5027686;28;20032;-87
2022/07/11 14:13:50;;;;;;;7.15;2.90;;;;;;;24.18;31.35;101344.91;5023627;28;20079;-89
